Time;durP1;ratioP1;P1;durP2;ratioP2;P2;SDS_P1;SDS_P2;PMS_P1;PMS_P2;Temp;Humidity;BMP_temperature;BMP_pressure;BME280_temperature;BME280_humidity;BME280_pressure;Samples;Min_cycle;Max_cycle;Signal;HPM_P1;HPM_P2
2022/09/04 00:00:49;;;;;;;14.13;7.93;;;;;;;;;;5111502;28;20100;-70
2022/09/04 00:04:16;;;;;;;15.55;8.18;;;;;;;;;;5111333;27;20424;-70
2022/09/04 00:06:46;;;;;;;14.05;7.30;;;;;;;;;;5103118;28;20036;-70
2022/09/04 00:10:28;;;;;;;11.20;7.07;;;;;;;;;;5110999;27;20477;-70
2022/09/04 00:13:13;;;;;;;12.27;7.32;;;;;;;;;;5111656;28;20075;-70
2022/09/04 00:15:42;;;;;;;10.88;7.30;;;;;;;;;;5110799;28;20034;-70
2022/09/04 00:19:40;;;;;;;10.65;6.82;;;;;;;;;;5173729;27;20363;-70
2022/09/04 00:23:53;;;;;;;10.85;6.40;;;;;;;;;;5111138;27;20424;-70
2022/09/04 00:27:44;;;;;;;11.38;7.32;;;;;;;;;;5112016;27;20416;-70
2022/09/04 00:33:26;;;;;;;11.43;7.50;;;;;;;;;;5173446;27;20464;-70
2022/09/04 00:36:23;;;;;;;12.65;7.10;;;;;;;;;;5070773;28;20850;-71
2022/09/04 00:43:42;;;;;;;14.77;7.47;;;;;;;;;;5111664;27;20419;-70
2022/09/04 00:46:08;;;;;;;9.27;5.97;;;;;;;;;;5111270;28;20020;-70
2022/09/04 00:54:21;;;;;;;11.55;7.10;;;;;;;;;;5111553;27;20543;-70
2022/09/04 00:57:26;;;;;;;11.27;6.95;;;;;;;;;;5111368;27;20423;-70
2022/09/04 01:00:14;;;;;;;12.32;7.32;;;;;;;;;;5111005;28;20039;-70
2022/09/04 01:04:50;;;;;;;11.85;7.05;;;;;;;;;;5112002;27;20470;-70
2022/09/04 01:07:36;;;;;;;11.30;6.75;;;;;;;;;;5111728;28;20031;-70
2022/09/04 01:10:18;;;;;;;11.95;7.82;;;;;;;;;;5111250;28;20016;-70
2022/09/04 01:13:11;;;;;;;14.65;8.63;;;;;;;;;;5111266;27;21004;-71
2022/09/04 01:17:04;;;;;;;11.52;7.20;;;;;;;;;;5091657;27;20382;-70
2022/09/04 01:19:40;;;;;;;14.45;7.78;;;;;;;;;;5072416;28;20025;-70
2022/09/04 01:25:24;;;;;;;11.15;6.88;;;;;;;;;;5112119;27;20465;-70
2022/09/04 01:27:56;;;;;;;10.20;6.70;;;;;;;;;;5109602;28;20020;-70
2022/09/04 01:30:22;;;;;;;11.52;6.63;;;;;;;;;;5111321;28;20022;-70
2022/09/04 01:34:07;;;;;;;10.73;6.22;;;;;;;;;;5070414;28;20472;-70
2022/09/04 01:36:33;;;;;;;9.27;6.38;;;;;;;;;;5070654;28;20028;-70
2022/09/04 01:39:00;;;;;;;11.18;6.43;;;;;;;;;;5069370;28;20115;-70
2022/09/04 01:41:29;;;;;;;9.73;6.10;;;;;;;;;;5070192;28;20028;-70
2022/09/04 01:43:55;;;;;;;10.63;6.07;;;;;;;;;;5070517;28;20024;-70
2022/09/04 01:46:40;;;;;;;10.25;6.32;;;;;;;;;;5070546;28;20025;-70
2022/09/04 01:50:21;;;;;;;9.35;5.38;;;;;;;;;;5111768;27;20423;-70
2022/09/04 01:52:58;;;;;;;9.85;6.68;;;;;;;;;;5111453;28;20032;-70
2022/09/04 01:55:56;;;;;;;11.27;6.90;;;;;;;;;;5111110;27;20416;-70
2022/09/04 02:06:27;;;;;;;11.35;6.75;;;;;;;;;;5111373;27;21004;-70
2022/09/04 02:09:00;;;;;;;12.05;6.85;;;;;;;;;;5110825;28;20020;-70
2022/09/04 02:11:30;;;;;;;11.80;6.87;;;;;;;;;;5111144;28;20035;-70
2022/09/04 02:14:16;;;;;;;11.25;7.18;;;;;;;;;;5111414;28;20236;-70
2022/09/04 02:16:52;;;;;;;9.90;6.28;;;;;;;;;;5110678;28;20020;-70
2022/09/04 02:21:05;;;;;;;11.40;7.20;;;;;;;;;;5111534;27;20424;-70
2022/09/04 02:23:38;;;;;;;11.43;6.90;;;;;;;;;;5110992;28;20476;-70
2022/09/04 02:26:20;;;;;;;10.80;6.78;;;;;;;;;;5109948;28;20480;-70
2022/09/04 02:29:22;;;;;;;13.85;8.52;;;;;;;;;;5111410;27;20488;-70
2022/09/04 02:38:08;;;;;;;14.18;7.68;;;;;;;;;;5111038;27;20788;-70
2022/09/04 02:41:25;;;;;;;12.27;7.85;;;;;;;;;;5111762;27;20420;-70
2022/09/04 02:44:06;;;;;;;15.10;9.23;;;;;;;;;;5111259;28;20032;-70
2022/09/04 02:46:51;;;;;;;13.18;8.20;;;;;;;;;;5111473;28;20514;-70
2022/09/04 02:53:11;;;;;;;13.20;8.23;;;;;;;;;;5111540;27;20424;-70
2022/09/04 02:56:08;;;;;;;14.13;8.65;;;;;;;;;;5111550;28;20111;-70
2022/09/04 02:59:46;;;;;;;11.65;7.07;;;;;;;;;;5111008;27;20420;-70
2022/09/04 03:02:22;;;;;;;12.73;7.90;;;;;;;;;;5109964;28;20369;-70
2022/09/04 03:05:04;;;;;;;12.77;7.07;;;;;;;;;;5110813;28;20051;-70
2022/09/04 03:07:31;;;;;;;11.88;7.47;;;;;;;;;;5110129;28;20020;-70
2022/09/04 03:11:38;;;;;;;11.18;6.95;;;;;;;;;;5110967;27;20408;-70
2022/09/04 03:14:04;;;;;;;10.85;6.70;;;;;;;;;;5111425;28;20027;-70
2022/09/04 03:16:45;;;;;;;12.40;6.88;;;;;;;;;;5111235;28;20081;-70
2022/09/04 03:19:39;;;;;;;12.55;5.95;;;;;;;;;;5111323;27;20416;-70
2022/09/04 03:22:17;;;;;;;12.05;6.75;;;;;;;;;;5109977;28;20123;-70
2022/09/04 03:27:25;;;;;;;11.02;7.25;;;;;;;;;;5110874;27;20416;-70
2022/09/04 03:30:00;;;;;;;13.82;7.57;;;;;;;;;;5111382;28;20020;-70
2022/09/04 03:32:28;;;;;;;12.15;6.88;;;;;;;;;;5109916;28;20543;-70
2022/09/04 03:36:44;;;;;;;11.13;6.50;;;;;;;;;;5111376;27;20420;-70
2022/09/04 03:39:22;;;;;;;10.50;6.47;;;;;;;;;;5110048;28;20028;-70
2022/09/04 03:43:05;;;;;;;13.02;7.47;;;;;;;;;;5111770;27;20113;-71
2022/09/04 03:45:31;;;;;;;11.48;7.43;;;;;;;;;;5111256;28;20059;-70
2022/09/04 03:48:03;;;;;;;12.77;7.25;;;;;;;;;;5110745;28;20020;-70
2022/09/04 03:50:48;;;;;;;11.20;6.90;;;;;;;;;;5111145;28;20054;-70
2022/09/04 03:53:29;;;;;;;9.65;6.38;;;;;;;;;;5111148;28;20259;-70
2022/09/04 03:58:00;;;;;;;9.50;5.97;;;;;;;;;;5111492;27;20551;-71
2022/09/04 04:00:29;;;;;;;11.15;6.65;;;;;;;;;;5111283;28;20480;-70
2022/09/04 04:04:06;;;;;;;10.30;6.57;;;;;;;;;;5111345;27;20423;-71
2022/09/04 04:06:42;;;;;;;9.30;5.70;;;;;;;;;;5111355;28;20055;-70
2022/09/04 04:11:18;;;;;;;10.02;6.25;;;;;;;;;;5111971;27;20384;-70
2022/09/04 04:13:50;;;;;;;12.80;8.10;;;;;;;;;;5127105;28;20032;-70
2022/09/04 04:19:41;;;;;;;12.35;6.45;;;;;;;;;;5111484;27;20420;-70
2022/09/04 04:22:49;;;;;;;10.52;5.97;;;;;;;;;;5111213;27;20420;-70
2022/09/04 04:27:34;;;;;;;10.20;6.10;;;;;;;;;;5111483;27;20470;-70
2022/09/04 04:30:13;;;;;;;12.43;6.75;;;;;;;;;;5110965;28;20032;-70
2022/09/04 04:33:14;;;;;;;10.13;5.70;;;;;;;;;;5111654;27;20473;-70
2022/09/04 04:35:40;;;;;;;12.02;6.68;;;;;;;;;;5111425;28;20073;-71
2022/09/04 04:40:47;;;;;;;9.45;5.95;;;;;;;;;;5111821;27;20424;-71
2022/09/04 04:43:46;;;;;;;10.43;5.65;;;;;;;;;;5111438;27;20457;-71
2022/09/04 04:46:22;;;;;;;9.95;6.75;;;;;;;;;;5111283;28;20032;-70
2022/09/04 04:49:12;;;;;;;10.90;5.22;;;;;;;;;;5110017;28;20059;-71
2022/09/04 04:51:58;;;;;;;10.55;5.90;;;;;;;;;;5109543;28;20024;-70
2022/09/04 04:57:25;;;;;;;10.57;5.35;;;;;;;;;;5111018;27;20826;-71
2022/09/04 05:00:02;;;;;;;10.98;6.55;;;;;;;;;;5109988;28;20411;-70
2022/09/04 05:04:41;;;;;;;11.38;6.50;;;;;;;;;;5111381;27;20416;-70
2022/09/04 05:07:13;;;;;;;11.70;5.75;;;;;;;;;;5111232;28;20032;-70
2022/09/04 05:10:25;;;;;;;12.60;6.40;;;;;;;;;;5111766;27;20412;-70
2022/09/04 05:13:35;;;;;;;9.70;5.78;;;;;;;;;;5110834;27;20408;-70
2022/09/04 05:16:09;;;;;;;9.73;5.80;;;;;;;;;;5111293;28;20035;-70
2022/09/04 05:18:42;;;;;;;10.05;5.55;;;;;;;;;;5111007;28;20095;-70
2022/09/04 05:22:15;;;;;;;10.48;5.30;;;;;;;;;;5070692;28;20891;-70
2022/09/04 05:26:53;;;;;;;10.55;5.75;;;;;;;;;;5110895;27;20318;-70
2022/09/04 05:29:25;;;;;;;9.07;5.85;;;;;;;;;;5111196;28;20020;-70
2022/09/04 05:34:32;;;;;;;9.98;6.40;;;;;;;;;;5111242;27;20477;-70
2022/09/04 05:37:17;;;;;;;9.00;5.57;;;;;;;;;;5111292;28;20028;-71
2022/09/04 05:40:52;;;;;;;10.60;5.70;;;;;;;;;;5090778;28;20386;-71
2022/09/04 05:43:20;;;;;;;10.32;5.30;;;;;;;;;;5090945;28;20051;-71
2022/09/04 05:45:53;;;;;;;8.57;4.75;;;;;;;;;;5090785;28;20059;-71
2022/09/04 05:48:29;;;;;;;13.23;5.40;;;;;;;;;;5090422;28;20020;-71
2022/09/04 05:53:34;;;;;;;11.63;5.68;;;;;;;;;;5111305;27;20470;-70
2022/09/04 05:56:17;;;;;;;9.47;5.33;;;;;;;;;;5111553;28;20015;-71
2022/09/04 05:58:46;;;;;;;8.52;5.20;;;;;;;;;;5111609;28;20043;-70
2022/09/04 06:07:10;;;;;;;9.07;4.57;;;;;;;;;;5111304;27;20420;-70
2022/09/04 06:09:36;;;;;;;8.75;5.10;;;;;;;;;;5111273;28;20553;-70
2022/09/04 06:15:26;;;;;;;9.48;4.80;;;;;;;;;;5111269;27;20377;-70
2022/09/04 06:18:00;;;;;;;8.70;4.90;;;;;;;;;;5111456;28;20057;-70
2022/09/04 06:20:45;;;;;;;9.27;4.88;;;;;;;;;;5111453;28;20028;-72
2022/09/04 06:24:11;;;;;;;9.05;5.20;;;;;;;;;;5111844;27;20434;-73
2022/09/04 06:26:37;;;;;;;8.32;5.03;;;;;;;;;;5111412;28;20020;-70
2022/09/04 06:30:58;;;;;;;9.15;4.88;;;;;;;;;;5111474;27;20483;-70
2022/09/04 06:34:26;;;;;;;9.13;4.97;;;;;;;;;;5111380;27;20428;-71
2022/09/04 06:37:16;;;;;;;8.52;5.20;;;;;;;;;;5109608;28;20115;-70
2022/09/04 06:43:15;;;;;;;9.45;5.40;;;;;;;;;;5111052;27;20480;-70
2022/09/04 06:45:44;;;;;;;12.52;5.97;;;;;;;;;;5111286;28;20034;-71
2022/09/04 06:48:22;;;;;;;9.52;5.72;;;;;;;;;;5111373;28;20495;-72
2022/09/04 06:51:07;;;;;;;11.07;6.00;;;;;;;;;;5110948;28;20031;-72
2022/09/04 06:56:17;;;;;;;11.57;5.18;;;;;;;;;;5091739;28;20710;-71
2022/09/04 06:58:44;;;;;;;9.02;4.85;;;;;;;;;;5090535;28;20031;-71
2022/09/04 07:01:14;;;;;;;8.60;4.85;;;;;;;;;;5090923;28;20492;-72
2022/09/04 07:03:48;;;;;;;10.25;5.40;;;;;;;;;;5090338;28;20039;-71
2022/09/04 07:08:28;;;;;;;10.23;6.25;;;;;;;;;;5112035;27;20920;-71
2022/09/04 07:12:25;;;;;;;9.20;5.93;;;;;;;;;;5110936;27;20481;-70
2022/09/04 07:14:51;;;;;;;12.30;6.85;;;;;;;;;;5111494;28;20032;-70
2022/09/04 07:17:21;;;;;;;10.68;5.78;;;;;;;;;;5111151;28;20020;-71
2022/09/04 07:20:37;;;;;;;11.85;6.00;;;;;;;;;;5111853;27;20838;-70
2022/09/04 07:25:44;;;;;;;9.68;6.10;;;;;;;;;;5110975;27;20754;-70
2022/09/04 07:29:59;;;;;;;12.68;6.88;;;;;;;;;;5111921;27;20798;-70
2022/09/04 07:32:33;;;;;;;12.35;7.10;;;;;;;;;;5110932;28;20031;-70
2022/09/04 07:35:06;;;;;;;10.93;7.00;;;;;;;;;;5111528;28;20019;-70
2022/09/04 07:38:46;;;;;;;12.98;7.88;;;;;;;;;;5090888;28;20567;-71
2022/09/04 07:41:32;;;;;;;10.18;6.32;;;;;;;;;;5090935;28;20016;-71
2022/09/04 07:44:09;;;;;;;9.02;5.43;;;;;;;;;;5091126;28;20074;-71
2022/09/04 07:46:35;;;;;;;10.07;5.85;;;;;;;;;;5090369;28;20020;-71
2022/09/04 07:49:15;;;;;;;7.97;5.13;;;;;;;;;;5090837;28;20020;-71
2022/09/04 07:55:12;;;;;;;10.88;5.53;;;;;;;;;;5070554;28;20387;-71
2022/09/04 07:58:01;;;;;;;9.00;5.50;;;;;;;;;;5070826;28;20032;-72
2022/09/04 08:00:29;;;;;;;10.60;5.97;;;;;;;;;;5085502;28;20444;-71
2022/09/04 08:02:55;;;;;;;7.72;4.93;;;;;;;;;;5070601;28;20047;-71
2022/09/04 08:06:44;;;;;;;8.68;5.03;;;;;;;;;;5111656;27;20826;-71
2022/09/04 08:09:31;;;;;;;10.23;5.93;;;;;;;;;;5111447;28;20036;-71
2022/09/04 08:13:50;;;;;;;11.23;5.45;;;;;;;;;;5111389;27;20445;-71
2022/09/04 08:16:16;;;;;;;11.30;6.55;;;;;;;;;;5100623;28;20480;-71
2022/09/04 08:19:04;;;;;;;8.90;5.25;;;;;;;;;;5071029;28;20440;-71
2022/09/04 08:21:31;;;;;;;11.77;5.60;;;;;;;;;;5070266;28;20035;-71
2022/09/04 08:24:19;;;;;;;9.43;5.32;;;;;;;;;;5070950;28;20024;-71
2022/09/04 08:27:15;;;;;;;11.00;5.57;;;;;;;;;;5070884;28;20100;-71
2022/09/04 08:29:41;;;;;;;16.02;5.70;;;;;;;;;;5065477;28;20382;-72
2022/09/04 08:32:25;;;;;;;8.93;5.18;;;;;;;;;;5070829;28;20017;-71
2022/09/04 08:35:05;;;;;;;14.98;5.45;;;;;;;;;;5070222;28;20036;-72
2022/09/04 08:40:23;;;;;;;9.35;4.53;;;;;;;;;;5111508;27;20381;-72
2022/09/04 08:43:07;;;;;;;10.38;4.80;;;;;;;;;;5110997;28;20107;-72
2022/09/04 08:46:03;;;;;;;7.95;4.82;;;;;;;;;;5111241;28;20032;-72
2022/09/04 08:48:35;;;;;;;7.53;4.80;;;;;;;;;;5098259;28;20472;-71
2022/09/04 08:51:13;;;;;;;8.52;4.70;;;;;;;;;;5110693;28;20024;-72
2022/09/04 08:54:01;;;;;;;8.88;5.05;;;;;;;;;;5111071;28;20035;-71
2022/09/04 08:57:30;;;;;;;7.20;4.22;;;;;;;;;;5111230;27;20392;-72
2022/09/04 08:59:59;;;;;;;15.73;5.40;;;;;;;;;;5111839;28;20058;-72
2022/09/04 09:02:34;;;;;;;17.10;5.90;;;;;;;;;;5111384;28;20024;-72
2022/09/04 09:05:19;;;;;;;11.27;4.95;;;;;;;;;;5110689;28;20483;-72
2022/09/04 09:07:45;;;;;;;8.93;5.03;;;;;;;;;;5110182;28;20028;-73
2022/09/04 09:10:30;;;;;;;10.38;4.78;;;;;;;;;;5110639;28;20439;-72
2022/09/04 09:13:05;;;;;;;8.35;4.38;;;;;;;;;;5111251;28;20024;-73
2022/09/04 09:15:32;;;;;;;7.93;4.65;;;;;;;;;;5110892;28;20081;-73
2022/09/04 09:18:01;;;;;;;6.80;4.20;;;;;;;;;;5110528;28;20391;-72
2022/09/04 09:20:36;;;;;;;11.05;5.18;;;;;;;;;;5111245;28;20121;-72
2022/09/04 09:23:14;;;;;;;8.13;4.65;;;;;;;;;;5110775;28;20105;-72
2022/09/04 09:25:51;;;;;;;9.95;5.45;;;;;;;;;;5110527;28;20031;-72
2022/09/04 09:28:17;;;;;;;7.68;4.70;;;;;;;;;;5109448;28;20479;-72
2022/09/04 09:30:46;;;;;;;8.52;4.72;;;;;;;;;;5111131;28;20023;-72
2022/09/04 09:33:15;;;;;;;7.50;4.18;;;;;;;;;;5110285;28;20066;-73
2022/09/04 09:35:50;;;;;;;10.18;5.53;;;;;;;;;;5110880;28;20023;-72
2022/09/04 09:38:25;;;;;;;7.05;4.00;;;;;;;;;;5110224;28;20524;-73
2022/09/04 09:40:54;;;;;;;6.38;3.35;;;;;;;;;;5110492;28;20095;-71
2022/09/04 09:43:40;;;;;;;7.55;3.97;;;;;;;;;;5110409;28;20051;-71
2022/09/04 09:46:35;;;;;;;7.43;4.10;;;;;;;;;;5109869;28;20016;-72
2022/09/04 09:49:04;;;;;;;15.63;5.55;;;;;;;;;;5110523;28;20110;-72
2022/09/04 09:51:43;;;;;;;7.13;4.35;;;;;;;;;;5108990;28;20019;-72
2022/09/04 09:54:24;;;;;;;6.78;3.75;;;;;;;;;;5108526;28;20118;-71
2022/09/04 09:56:56;;;;;;;8.60;4.85;;;;;;;;;;5109989;28;20079;-71
2022/09/04 09:59:34;;;;;;;6.55;3.70;;;;;;;;;;5109643;28;20016;-72
2022/09/04 10:02:15;;;;;;;7.30;4.13;;;;;;;;;;5110080;28;20031;-73
2022/09/04 10:04:56;;;;;;;7.80;3.85;;;;;;;;;;5108762;28;20400;-71
2022/09/04 10:07:27;;;;;;;7.10;4.00;;;;;;;;;;5104358;28;20051;-71
2022/09/04 10:10:17;;;;;;;5.75;3.65;;;;;;;;;;5096451;28;20078;-71
2022/09/04 10:13:03;;;;;;;6.32;3.60;;;;;;;;;;5095068;28;20057;-71
2022/09/04 10:15:45;;;;;;;6.60;3.97;;;;;;;;;;5064802;28;20130;-72
2022/09/04 10:18:31;;;;;;;5.67;3.40;;;;;;;;;;5096469;28;20058;-72
2022/09/04 10:21:24;;;;;;;6.78;3.88;;;;;;;;;;5094445;28;20096;-72
2022/09/04 10:24:09;;;;;;;7.20;4.03;;;;;;;;;;5093317;28;20048;-74
2022/09/04 10:26:53;;;;;;;6.05;3.22;;;;;;;;;;5095937;28;20020;-72
2022/09/04 10:29:19;;;;;;;5.60;3.30;;;;;;;;;;5095597;28;20089;-72
2022/09/04 10:31:53;;;;;;;6.30;3.58;;;;;;;;;;5096114;28;20032;-71
2022/09/04 10:34:45;;;;;;;5.80;3.60;;;;;;;;;;5096026;28;20035;-72
2022/09/04 10:37:29;;;;;;;10.88;4.20;;;;;;;;;;5095738;28;20508;-72
2022/09/04 10:42:52;;;;;;;7.65;3.47;;;;;;;;;;5095376;28;20465;-72
2022/09/04 10:45:18;;;;;;;9.05;4.10;;;;;;;;;;5095852;28;20024;-73
2022/09/04 10:48:03;;;;;;;9.95;5.03;;;;;;;;;;5095679;28;20456;-73
2022/09/04 10:50:32;;;;;;;7.55;3.92;;;;;;;;;;5093894;28;20034;-73
2022/09/04 10:53:19;;;;;;;6.00;3.38;;;;;;;;;;5095473;28;20056;-72
2022/09/04 10:56:00;;;;;;;5.50;2.78;;;;;;;;;;5094860;28;20048;-74
2022/09/04 10:58:38;;;;;;;4.50;2.72;;;;;;;;;;5094381;28;20024;-74
2022/09/04 11:01:17;;;;;;;4.47;2.22;;;;;;;;;;5095592;28;20020;-73
2022/09/04 11:03:43;;;;;;;4.35;2.20;;;;;;;;;;5094955;28;20099;-73
2022/09/04 11:06:24;;;;;;;4.30;2.40;;;;;;;;;;5095288;28;20016;-73
2022/09/04 11:08:59;;;;;;;5.63;2.85;;;;;;;;;;5095567;28;20081;-74
2022/09/04 11:11:25;;;;;;;4.93;2.63;;;;;;;;;;5094893;28;20077;-73
2022/09/04 11:14:11;;;;;;;5.57;3.42;;;;;;;;;;5095031;28;20028;-73
2022/09/04 11:16:55;;;;;;;6.97;3.70;;;;;;;;;;5094686;28;20024;-73
2022/09/04 11:19:42;;;;;;;10.05;2.90;;;;;;;;;;5092743;28;20039;-73
2022/09/04 11:22:26;;;;;;;4.40;2.72;;;;;;;;;;5094923;28;20020;-72
2022/09/04 11:25:11;;;;;;;4.93;2.47;;;;;;;;;;5094536;28;20111;-73
2022/09/04 11:27:55;;;;;;;5.07;2.33;;;;;;;;;;5094828;28;20063;-72
2022/09/04 11:30:25;;;;;;;12.75;3.45;;;;;;;;;;5094748;28;20026;-73
2022/09/04 11:33:02;;;;;;;5.60;2.45;;;;;;;;;;5094433;28;20020;-73
2022/09/04 11:35:38;;;;;;;11.43;4.60;;;;;;;;;;5094997;28;20047;-73
2022/09/04 11:38:18;;;;;;;4.40;2.67;;;;;;;;;;5093028;28;20590;-74
2022/09/04 11:41:02;;;;;;;4.40;2.70;;;;;;;;;;5094834;28;20059;-73
2022/09/04 11:43:47;;;;;;;3.58;2.42;;;;;;;;;;5094750;28;20090;-73
2022/09/04 11:46:25;;;;;;;3.75;2.25;;;;;;;;;;5094291;28;20013;-73
2022/09/04 11:49:12;;;;;;;4.28;2.30;;;;;;;;;;5094961;28;20502;-73
2022/09/04 11:51:44;;;;;;;6.53;2.58;;;;;;;;;;5094426;28;20074;-73
2022/09/04 11:54:10;;;;;;;;;;;;;;;;;;5095045;28;20058;-73
2022/09/04 11:56:45;;;;;;;4.80;2.33;;;;;;;;;;5094108;28;20288;-73
2022/09/04 11:59:14;;;;;;;4.05;2.20;;;;;;;;;;5093856;28;20028;-73
2022/09/04 12:01:51;;;;;;;5.38;2.35;;;;;;;;;;5094310;28;20031;-74
2022/09/04 12:04:32;;;;;;;4.43;2.17;;;;;;;;;;5094237;28;20035;-73
2022/09/04 12:07:12;;;;;;;3.47;2.23;;;;;;;;;;5092435;28;20024;-73
2022/09/04 12:09:42;;;;;;;2.97;2.08;;;;;;;;;;5092937;28;20261;-72
2022/09/04 12:12:15;;;;;;;5.13;2.17;;;;;;;;;;5094152;28;20110;-73
2022/09/04 12:15:04;;;;;;;5.03;2.10;;;;;;;;;;5093632;28;20023;-73
2022/09/04 12:17:34;;;;;;;5.05;2.22;;;;;;;;;;5085831;28;20113;-73
2022/09/04 12:20:23;;;;;;;4.05;2.38;;;;;;;;;;5093508;28;20472;-73
2022/09/04 12:23:08;;;;;;;2.35;1.90;;;;;;;;;;5094004;28;20020;-74
2022/09/04 12:25:52;;;;;;;2.88;1.90;;;;;;;;;;5093833;28;20024;-72
2022/09/04 12:28:36;;;;;;;2.05;1.70;;;;;;;;;;5093339;28;20096;-72
2022/09/04 12:31:21;;;;;;;4.72;2.67;;;;;;;;;;5093427;28;20425;-73
2022/09/04 12:34:05;;;;;;;7.95;2.75;;;;;;;;;;5092557;28;20119;-72
2022/09/04 12:36:35;;;;;;;4.60;2.22;;;;;;;;;;5093521;28;20103;-73
2022/09/04 12:39:02;;;;;;;8.57;4.70;;;;;;;;;;5093891;28;20016;-72
2022/09/04 12:41:28;;;;;;;6.25;2.78;;;;;;;;;;5093302;28;20024;-73
2022/09/04 12:43:54;;;;;;;5.00;2.40;;;;;;;;;;5093484;28;20031;-72
2022/09/04 12:46:34;;;;;;;5.22;1.90;;;;;;;;;;5093587;28;20395;-72
2022/09/04 12:49:00;;;;;;;4.63;2.55;;;;;;;;;;5093380;28;20043;-72
2022/09/04 12:51:34;;;;;;;5.20;2.22;;;;;;;;;;5093473;28;20103;-71
2022/09/04 12:54:23;;;;;;;2.80;1.55;;;;;;;;;;5093735;28;20023;-71
2022/09/04 12:57:07;;;;;;;4.57;2.53;;;;;;;;;;5054666;28;20090;-73
2022/09/04 12:59:33;;;;;;;6.15;2.13;;;;;;;;;;5093382;28;20016;-72
2022/09/04 13:02:03;;;;;;;5.90;2.47;;;;;;;;;;5093371;28;20020;-71
2022/09/04 13:04:29;;;;;;;3.33;2.00;;;;;;;;;;5093058;28;20103;-71
2022/09/04 13:07:01;;;;;;;4.25;1.90;;;;;;;;;;5093645;28;20472;-71
2022/09/04 13:09:37;;;;;;;5.15;2.15;;;;;;;;;;5091477;28;20032;-71
2022/09/04 13:12:27;;;;;;;4.05;1.80;;;;;;;;;;5093910;28;20068;-71
2022/09/04 13:15:12;;;;;;;3.17;2.13;;;;;;;;;;5081770;28;20032;-71
2022/09/04 13:17:57;;;;;;;5.13;2.45;;;;;;;;;;5092780;28;20058;-71
2022/09/04 13:20:29;;;;;;;4.03;2.45;;;;;;;;;;5093138;28;20020;-71
2022/09/04 13:23:03;;;;;;;9.93;3.03;;;;;;;;;;5091941;28;20039;-71
2022/09/04 13:25:44;;;;;;;5.88;3.35;;;;;;;;;;5092755;28;20024;-72
2022/09/04 13:28:34;;;;;;;3.63;2.00;;;;;;;;;;5093163;28;20024;-72
2022/09/04 13:31:02;;;;;;;3.70;2.08;;;;;;;;;;5092549;28;20021;-72
2022/09/04 13:33:38;;;;;;;6.20;2.47;;;;;;;;;;5093063;28;20449;-72
2022/09/04 13:36:24;;;;;;;3.75;2.00;;;;;;;;;;5093033;28;20028;-71
2022/09/04 13:39:05;;;;;;;3.78;1.63;;;;;;;;;;5092889;28;20020;-73
2022/09/04 13:41:50;;;;;;;3.80;2.03;;;;;;;;;;5093074;28;20077;-72
2022/09/04 13:44:23;;;;;;;2.10;1.77;;;;;;;;;;5096596;28;20024;-72
2022/09/04 13:46:59;;;;;;;3.50;2.08;;;;;;;;;;5097022;28;20472;-72
2022/09/04 13:49:27;;;;;;;2.92;1.98;;;;;;;;;;5097027;28;20081;-72
2022/09/04 13:51:58;;;;;;;4.13;2.40;;;;;;;;;;5096555;28;20024;-72
2022/09/04 13:54:30;;;;;;;3.88;2.08;;;;;;;;;;5097085;28;20480;-73
2022/09/04 13:56:56;;;;;;;4.35;2.03;;;;;;;;;;5096491;28;20126;-73
2022/09/04 13:59:22;;;;;;;4.82;1.88;;;;;;;;;;5096151;28;20020;-73
2022/09/04 14:01:51;;;;;;;4.07;1.70;;;;;;;;;;5096681;28;20472;-73
2022/09/04 14:04:25;;;;;;;3.72;1.92;;;;;;;;;;5096528;28;20043;-73
2022/09/04 14:06:54;;;;;;;2.80;1.60;;;;;;;;;;5096181;28;20020;-72
2022/09/04 14:09:20;;;;;;;4.78;2.30;;;;;;;;;;5096704;28;20032;-72
2022/09/04 14:12:06;;;;;;;3.33;1.70;;;;;;;;;;5095108;28;20024;-73
2022/09/04 14:14:33;;;;;;;4.05;1.58;;;;;;;;;;5095955;28;20024;-73
2022/09/04 14:17:00;;;;;;;3.50;2.03;;;;;;;;;;5096332;28;20024;-73
2022/09/04 14:19:32;;;;;;;2.53;1.40;;;;;;;;;;5094716;28;20120;-73
2022/09/04 14:22:04;;;;;;;3.67;1.58;;;;;;;;;;5096661;28;20032;-73
2022/09/04 14:24:33;;;;;;;3.55;1.90;;;;;;;;;;5096020;28;20479;-73
2022/09/04 14:27:00;;;;;;;3.70;1.70;;;;;;;;;;5095666;28;20499;-72
2022/09/04 14:29:37;;;;;;;2.25;1.60;;;;;;;;;;5094710;28;20024;-72
2022/09/04 14:32:32;;;;;;;3.28;1.70;;;;;;;;;;5094702;28;20024;-72
2022/09/04 14:35:22;;;;;;;4.05;1.75;;;;;;;;;;5082248;28;20036;-72
2022/09/04 14:37:54;;;;;;;3.55;2.30;;;;;;;;;;5087753;28;20048;-73
2022/09/04 14:40:24;;;;;;;;;;;;;;;;;;5096292;28;20591;-71
2022/09/04 14:43:02;;;;;;;3.42;2.03;;;;;;;;;;5094077;28;19908;-71
2022/09/04 14:45:29;;;;;;;5.35;2.05;;;;;;;;;;5094529;28;20028;-73
2022/09/04 14:48:16;;;;;;;5.10;1.95;;;;;;;;;;5095262;28;20085;-71
2022/09/04 14:50:53;;;;;;;4.63;1.60;;;;;;;;;;5095727;28;20057;-72
2022/09/04 14:53:32;;;;;;;4.70;2.17;;;;;;;;;;5095441;28;20024;-71
2022/09/04 14:56:07;;;;;;;3.38;2.20;;;;;;;;;;5093564;28;20044;-72
2022/09/04 14:58:45;;;;;;;3.42;1.80;;;;;;;;;;5095403;28;20016;-72
2022/09/04 15:01:18;;;;;;;2.40;1.70;;;;;;;;;;5095323;28;20477;-72
2022/09/04 15:04:03;;;;;;;4.20;1.70;;;;;;;;;;5093592;28;20028;-72
2022/09/04 15:06:44;;;;;;;3.00;1.70;;;;;;;;;;5095580;28;20028;-74
2022/09/04 15:09:36;;;;;;;3.50;1.65;;;;;;;;;;5094821;28;20580;-73
2022/09/04 15:12:14;;;;;;;3.17;1.63;;;;;;;;;;5092419;28;20083;-72
2022/09/04 15:14:43;;;;;;;2.63;1.35;;;;;;;;;;5093789;28;20447;-72
2022/09/04 15:17:13;;;;;;;4.03;1.80;;;;;;;;;;5094604;28;20028;-73
2022/09/04 15:19:53;;;;;;;5.07;1.67;;;;;;;;;;5093765;28;20027;-73
2022/09/04 15:22:33;;;;;;;2.20;1.30;;;;;;;;;;5095083;28;20047;-73
2022/09/04 15:25:11;;;;;;;2.22;1.15;;;;;;;;;;5094489;28;20496;-72
2022/09/04 15:27:43;;;;;;;3.10;1.50;;;;;;;;;;5095251;28;20028;-73
2022/09/04 15:30:23;;;;;;;2.60;1.52;;;;;;;;;;5094453;28;20024;-72
2022/09/04 15:33:02;;;;;;;2.63;1.38;;;;;;;;;;5094808;28;20073;-72
2022/09/04 15:35:30;;;;;;;3.13;1.70;;;;;;;;;;5093408;28;20111;-72
2022/09/04 15:38:08;;;;;;;1.55;1.02;;;;;;;;;;5094245;28;20027;-73
2022/09/04 15:40:37;;;;;;;1.38;1.10;;;;;;;;;;5094806;28;20035;-73
2022/09/04 15:43:21;;;;;;;2.92;1.40;;;;;;;;;;5094606;28;20416;-73
2022/09/04 15:45:50;;;;;;;4.10;1.75;;;;;;;;;;5094178;28;20016;-73
2022/09/04 15:48:16;;;;;;;2.55;1.40;;;;;;;;;;5094766;28;20050;-73
2022/09/04 15:51:01;;;;;;;3.63;1.63;;;;;;;;;;5094411;28;20021;-73
2022/09/04 15:53:30;;;;;;;2.47;1.35;;;;;;;;;;5094360;28;20024;-73
2022/09/04 15:56:15;;;;;;;2.83;1.55;;;;;;;;;;5094115;28;20075;-73
2022/09/04 15:58:41;;;;;;;2.42;1.42;;;;;;;;;;5093874;28;20031;-73
2022/09/04 16:01:12;;;;;;;3.63;1.38;;;;;;;;;;5094174;28;20054;-74
2022/09/04 16:03:46;;;;;;;3.15;1.50;;;;;;;;;;5094196;28;20020;-73
2022/09/04 16:06:18;;;;;;;2.92;1.50;;;;;;;;;;5093121;28;20020;-74
2022/09/04 16:08:45;;;;;;;;;;;;;;;;;;5094456;28;20386;-73
2022/09/04 16:11:26;;;;;;;2.53;1.52;;;;;;;;;;5092753;28;19909;-73
2022/09/04 16:13:57;;;;;;;1.88;1.20;;;;;;;;;;5092369;28;20020;-73
2022/09/04 16:16:24;;;;;;;2.20;1.10;;;;;;;;;;5093885;28;20093;-73
2022/09/04 16:19:05;;;;;;;2.75;1.20;;;;;;;;;;5093964;28;20016;-73
2022/09/04 16:21:39;;;;;;;1.52;1.00;;;;;;;;;;5093564;28;20119;-72
2022/09/04 16:24:27;;;;;;;2.95;1.50;;;;;;;;;;5092608;28;20043;-72
2022/09/04 16:26:54;;;;;;;2.53;1.65;;;;;;;;;;5093311;28;20418;-72
2022/09/04 16:29:20;;;;;;;3.40;1.50;;;;;;;;;;5093701;28;20045;-72
2022/09/04 16:31:53;;;;;;;4.35;2.30;;;;;;;;;;5093944;28;20063;-72
2022/09/04 16:34:22;;;;;;;5.13;2.28;;;;;;;;;;5093337;28;20048;-72
2022/09/04 16:36:51;;;;;;;7.68;2.83;;;;;;;;;;5093609;28;20110;-72
2022/09/04 16:39:22;;;;;;;4.57;2.30;;;;;;;;;;5093587;28;20415;-72
2022/09/04 16:41:52;;;;;;;7.00;2.38;;;;;;;;;;5093214;28;20059;-71
2022/09/04 16:44:18;;;;;;;4.95;2.33;;;;;;;;;;5093535;28;20035;-72
2022/09/04 16:47:01;;;;;;;4.22;2.00;;;;;;;;;;5093765;28;20020;-72
2022/09/04 16:49:37;;;;;;;4.38;2.38;;;;;;;;;;5093225;28;20099;-72
2022/09/04 16:53:52;;;;;;;4.90;2.60;;;;;;;;;;5095894;27;1700256;-71
2022/09/04 16:56:21;;;;;;;4.72;2.15;;;;;;;;;;5131345;28;20027;-71
2022/09/04 16:58:55;;;;;;;9.13;3.03;;;;;;;;;;5131901;27;20547;-72
2022/09/04 17:01:41;;;;;;;4.82;2.60;;;;;;;;;;5131569;27;20043;-71
2022/09/04 17:04:26;;;;;;;5.53;2.92;;;;;;;;;;5131446;28;20034;-71
2022/09/04 17:08:14;;;;;;;7.63;3.67;;;;;;;;;;5111708;27;20425;-71
2022/09/04 17:10:44;;;;;;;11.05;3.97;;;;;;;;;;5087091;28;20126;-71
2022/09/04 17:13:30;;;;;;;5.90;3.20;;;;;;;;;;5111106;28;20016;-71
2022/09/04 17:16:02;;;;;;;7.63;3.03;;;;;;;;;;5079649;28;20477;-71
2022/09/04 17:18:28;;;;;;;4.18;2.33;;;;;;;;;;5109667;28;20498;-71
2022/09/04 17:22:30;;;;;;;6.43;2.58;;;;;;;;;;5110933;28;20024;-71
2022/09/04 17:24:01;;;;;;;6.88;3.15;;;;;;;;;;5110238;28;20073;-71
2022/09/04 17:26:31;;;;;;;6.65;3.05;;;;;;;;;;5110761;28;20035;-71
2022/09/04 17:28:58;;;;;;;8.43;4.20;;;;;;;;;;5110764;28;20047;-71
2022/09/04 17:31:32;;;;;;;7.55;4.00;;;;;;;;;;5110540;28;20089;-71
2022/09/04 17:34:06;;;;;;;7.43;3.83;;;;;;;;;;5110709;28;20531;-72
2022/09/04 17:36:32;;;;;;;13.77;5.45;;;;;;;;;;5111073;28;20054;-72
2022/09/04 17:39:10;;;;;;;10.35;5.57;;;;;;;;;;5110402;28;20036;-73
2022/09/04 17:41:57;;;;;;;10.38;6.80;;;;;;;;;;5110619;28;20046;-71